Terminal Aerodrome Forecast
Issued by NWS

Home | Current Version | Previous Version | Text Only | Print | Product List | Glossary On
Versions: 1 2 3 4 5 6 7 8 9 10 11 12 13 14 15 16
000
FTUS43 KABR 181200 AAA
TAFPIR
TAF AMD
KPIR 181228Z 1812/1912 04010KT P6SM VCSH BKN060 OVC080
      TEMPO 1812/1814 -SHRA BKN040 OVC060
     FM181800 VRB06KT P6SM -SHRA BKN025 OVC050
     FM182200 36008KT 5SM -SHRA BR OVC015
     FM190300 33026G36KT P6SM -RA OVC025
     FM191000 33027G37KT P6SM OVC035=

USA.gov is the U.S. government's official web portal to all federal, state and local government web resources and services.